Time;durP1;ratioP1;P1;durP2;ratioP2;P2;SDS_P1;SDS_P2;PMS_P1;PMS_P2;Temp;Humidity;BMP_temperature;BMP_pressure;BME280_temperature;BME280_humidity;BME280_pressure;Samples;Min_cycle;Max_cycle;Signal;HPM_P1;HPM_P2
2022/10/06 00:01:04;;;;;;;0.40;0.40;;;14.20;99.90;;;;;;5073341;28;20337;-72
2022/10/06 00:03:53;;;;;;;0.40;0.40;;;14.30;99.90;;;;;;5073194;28;20201;-73
2022/10/06 00:06:41;;;;;;;0.40;0.40;;;14.30;99.90;;;;;;5072573;28;20207;-76
2022/10/06 00:09:29;;;;;;;0.40;0.40;;;14.20;99.90;;;;;;5073117;28;20580;-78
2022/10/06 00:12:18;;;;;;;0.40;0.40;;;14.20;99.90;;;;;;5072341;28;20841;-76
2022/10/06 00:15:08;;;;;;;0.40;0.40;;;14.20;99.90;;;;;;5073039;28;20207;-72
2022/10/06 00:17:56;;;;;;;0.40;0.40;;;14.10;99.90;;;;;;5073399;28;20673;-73
2022/10/06 00:20:44;;;;;;;0.40;0.40;;;14.10;99.90;;;;;;5073159;28;20249;-73
2022/10/06 00:23:33;;;;;;;1.77;1.67;;;14.10;99.90;;;;;;5072243;28;20275;-73
2022/10/06 00:26:21;;;;;;;0.40;0.40;;;14.10;99.90;;;;;;5072456;28;20419;-72
2022/10/06 00:29:12;;;;;;;0.40;0.40;;;14.00;99.90;;;;;;5072300;28;20864;-72
2022/10/06 00:32:00;;;;;;;0.40;0.40;;;14.10;99.90;;;;;;5072336;28;20543;-73
2022/10/06 00:34:48;;;;;;;0.40;0.40;;;14.10;99.90;;;;;;5070194;28;20424;-77
2022/10/06 00:37:38;;;;;;;0.40;0.40;;;14.30;99.90;;;;;;5071864;28;21015;-73
2022/10/06 00:40:26;;;;;;;0.40;0.40;;;14.50;99.90;;;;;;5072454;28;20905;-74
2022/10/06 00:43:42;;;;;;;0.40;0.40;;;14.60;99.90;;;;;;5071881;28;20813;-72
2022/10/06 00:46:36;;;;;;;0.40;0.40;;;14.80;99.90;;;;;;5071458;28;20420;-78
2022/10/06 00:49:30;;;;;;;1.17;1.00;;;15.00;99.90;;;;;;5070987;28;20439;-74
2022/10/06 00:52:21;;;;;;;0.40;0.40;;;15.00;99.90;;;;;;5073173;28;20708;-75
2022/10/06 00:55:09;;;;;;;0.40;0.40;;;15.10;99.90;;;;;;5071873;28;20433;-76
2022/10/06 00:57:58;;;;;;;0.40;0.40;;;15.20;99.90;;;;;;5072604;28;20456;-74
2022/10/06 01:00:49;;;;;;;0.40;0.40;;;15.20;99.90;;;;;;5072556;28;20501;-76
2022/10/06 01:03:42;;;;;;;0.40;0.40;;;15.30;99.90;;;;;;5071366;28;20238;-76
2022/10/06 01:06:40;;;;;;;0.40;0.40;;;15.30;99.90;;;;;;5072146;28;20434;-72
2022/10/06 01:09:29;;;;;;;0.43;0.43;;;15.20;99.90;;;;;;5072175;28;21181;-75
2022/10/06 01:12:19;;;;;;;0.40;0.40;;;15.20;99.90;;;;;;5072295;28;20223;-75
2022/10/06 01:15:09;;;;;;;0.40;0.40;;;15.10;99.90;;;;;;5071988;28;20695;-77
2022/10/06 01:18:01;;;;;;;0.40;0.40;;;15.10;99.90;;;;;;5072830;28;20573;-72
2022/10/06 01:20:57;;;;;;;0.40;0.40;;;15.20;99.90;;;;;;5071682;28;20409;-73
2022/10/06 01:23:48;;;;;;;1.43;1.33;;;15.20;99.90;;;;;;5067306;28;20447;-74
2022/10/06 01:26:42;;;;;;;0.40;0.40;;;15.30;99.90;;;;;;5070061;28;20290;-74
2022/10/06 01:29:31;;;;;;;0.50;0.50;;;15.40;99.90;;;;;;5071629;28;20224;-77
2022/10/06 01:32:20;;;;;;;0.60;0.60;;;15.40;99.90;;;;;;5072107;28;20257;-75
2022/10/06 01:35:09;;;;;;;0.40;0.40;;;15.50;99.90;;;;;;5071739;28;20331;-72
2022/10/06 01:37:58;;;;;;;1.00;1.00;;;;;;;;;;5071005;28;20200;-71
2022/10/06 01:40:49;;;;;;;0.40;0.40;;;15.30;99.90;;;;;;5072135;28;20254;-73
2022/10/06 01:43:37;;;;;;;0.40;0.40;;;15.20;99.90;;;;;;5071471;28;20733;-77
2022/10/06 01:46:26;;;;;;;0.40;0.40;;;15.10;99.90;;;;;;5072402;28;20197;-73
2022/10/06 01:49:14;;;;;;;0.50;0.50;;;15.00;99.90;;;;;;5074750;28;20749;-76
2022/10/06 01:52:03;;;;;;;0.40;0.40;;;14.90;99.90;;;;;;5074395;28;20224;-73
2022/10/06 01:54:51;;;;;;;0.40;0.40;;;15.00;99.90;;;;;;5075060;28;20505;-74
2022/10/06 01:57:42;;;;;;;0.40;0.40;;;14.90;99.90;;;;;;5074614;28;21078;-71
2022/10/06 02:00:30;;;;;;;0.40;0.40;;;14.90;99.90;;;;;;5074926;28;20419;-72
2022/10/06 02:03:18;;;;;;;0.50;0.50;;;14.80;99.90;;;;;;5069971;28;20489;-73
2022/10/06 02:06:07;;;;;;;0.40;0.40;;;14.70;99.90;;;;;;5073322;28;20435;-73
2022/10/06 02:08:55;;;;;;;0.40;0.40;;;14.70;99.90;;;;;;5073697;28;20439;-73
2022/10/06 02:11:43;;;;;;;0.40;0.40;;;14.70;99.90;;;;;;5073407;28;20681;-73
2022/10/06 02:14:33;;;;;;;0.40;0.40;;;14.60;99.90;;;;;;5073292;28;20197;-73
2022/10/06 02:17:21;;;;;;;0.40;0.40;;;14.60;99.90;;;;;;5073892;28;20513;-74
2022/10/06 02:20:10;;;;;;;0.40;0.40;;;14.60;99.90;;;;;;5073159;28;20471;-74
2022/10/06 02:22:58;;;;;;;0.40;0.40;;;14.60;99.90;;;;;;5073484;28;20427;-73
2022/10/06 02:25:46;;;;;;;0.40;0.40;;;14.60;99.90;;;;;;5073504;28;20201;-73
2022/10/06 02:28:35;;;;;;;0.40;0.40;;;14.70;99.90;;;;;;5072869;28;20807;-72
2022/10/06 02:31:24;;;;;;;0.40;0.40;;;14.70;99.90;;;;;;5072407;28;20588;-79
2022/10/06 02:34:13;;;;;;;0.40;0.40;;;14.60;99.90;;;;;;5072284;28;20208;-72
2022/10/06 02:37:01;;;;;;;0.40;0.40;;;14.50;99.90;;;;;;5073305;28;20193;-73
2022/10/06 02:39:49;;;;;;;0.40;0.40;;;14.60;99.90;;;;;;5072438;28;20227;-72
2022/10/06 02:42:37;;;;;;;0.47;0.47;;;14.70;99.90;;;;;;5072380;28;20513;-75
2022/10/06 02:45:25;;;;;;;0.40;0.40;;;14.50;99.90;;;;;;5073313;28;20423;-74
2022/10/06 02:48:14;;;;;;;0.53;0.53;;;14.70;99.90;;;;;;5073188;28;20777;-72
2022/10/06 02:51:05;;;;;;;0.50;0.50;;;14.80;99.90;;;;;;5073043;28;20679;-72
2022/10/06 02:53:53;;;;;;;0.40;0.40;;;14.90;99.90;;;;;;5072492;28;20636;-74
2022/10/06 02:56:41;;;;;;;0.40;0.40;;;15.00;99.90;;;;;;5073314;28;20426;-74
2022/10/06 02:59:29;;;;;;;0.40;0.40;;;15.10;99.90;;;;;;5071874;28;20220;-71
2022/10/06 03:02:17;;;;;;;0.40;0.40;;;15.20;99.90;;;;;;5071945;28;20197;-73
2022/10/06 03:05:07;;;;;;;0.70;0.70;;;15.30;99.90;;;;;;5072020;28;20212;-74
2022/10/06 03:07:55;;;;;;;0.40;0.40;;;15.30;99.90;;;;;;5072130;28;20435;-75
2022/10/06 03:10:43;;;;;;;0.40;0.40;;;15.40;99.90;;;;;;5072504;28;20293;-71
2022/10/06 03:13:31;;;;;;;0.40;0.40;;;15.40;99.90;;;;;;5072439;28;20224;-74
2022/10/06 03:16:21;;;;;;;0.40;0.40;;;15.40;99.90;;;;;;5072172;28;20279;-72
2022/10/06 03:19:10;;;;;;;0.60;0.60;;;15.60;99.90;;;;;;5072286;28;20240;-75
2022/10/06 03:22:00;;;;;;;0.40;0.40;;;15.80;99.90;;;;;;5071970;28;20207;-77
2022/10/06 03:24:48;;;;;;;0.40;0.40;;;15.80;99.90;;;;;;5071890;28;20278;-76
2022/10/06 03:27:36;;;;;;;0.40;0.40;;;15.90;99.90;;;;;;5070138;28;20197;-75
2022/10/06 03:30:23;;;;;;;0.40;0.40;;;15.90;99.90;;;;;;5065731;28;20196;-76
2022/10/06 03:33:11;;;;;;;0.73;0.73;;;15.90;99.90;;;;;;5072537;28;20220;-76
2022/10/06 03:36:00;;;;;;;3.97;1.70;;;16.00;99.90;;;;;;5073100;28;20197;-72
2022/10/06 03:38:50;;;;;;;0.70;0.70;;;15.90;99.90;;;;;;5073135;28;20220;-74
2022/10/06 03:41:39;;;;;;;1.30;1.30;;;15.70;99.90;;;;;;5072836;28;20196;-73
2022/10/06 03:44:27;;;;;;;0.80;0.80;;;15.60;99.90;;;;;;5073381;28;20423;-71
2022/10/06 03:47:15;;;;;;;0.83;0.83;;;15.50;99.90;;;;;;5072905;28;20819;-72
2022/10/06 03:50:05;;;;;;;0.67;0.67;;;15.40;99.90;;;;;;5072715;28;20439;-73
2022/10/06 03:52:53;;;;;;;1.37;1.20;;;15.30;99.90;;;;;;5072659;28;20459;-71
2022/10/06 03:55:42;;;;;;;0.40;0.40;;;15.30;99.90;;;;;;5072850;28;20200;-74
2022/10/06 03:58:31;;;;;;;0.40;0.40;;;15.30;99.90;;;;;;5072724;28;20697;-72
2022/10/06 04:01:21;;;;;;;0.40;0.40;;;15.20;99.90;;;;;;5071975;28;20786;-73
2022/10/06 04:04:14;;;;;;;0.80;0.80;;;15.30;99.90;;;;;;5073334;28;20200;-71
2022/10/06 04:07:02;;;;;;;0.50;0.50;;;15.30;99.90;;;;;;5072950;28;20430;-76
2022/10/06 04:09:50;;;;;;;1.83;0.70;;;15.30;99.90;;;;;;5072288;28;20443;-71
2022/10/06 04:12:40;;;;;;;1.23;1.13;;;15.30;99.90;;;;;;5072239;28;20463;-72
2022/10/06 04:15:28;;;;;;;0.50;0.50;;;15.30;99.90;;;;;;5073158;28;20943;-74
2022/10/06 04:18:16;;;;;;;0.40;0.40;;;15.40;99.90;;;;;;5072342;28;20518;-71
2022/10/06 04:21:04;;;;;;;1.03;0.83;;;15.40;99.90;;;;;;5072501;28;20422;-73
2022/10/06 04:23:53;;;;;;;0.40;0.40;;;15.50;99.90;;;;;;5073075;28;20804;-76
2022/10/06 04:26:43;;;;;;;0.60;0.60;;;15.50;99.90;;;;;;5072104;28;20739;-73
2022/10/06 04:29:33;;;;;;;0.40;0.40;;;15.50;99.90;;;;;;5072688;28;20537;-73
2022/10/06 04:32:21;;;;;;;0.40;0.40;;;15.50;99.90;;;;;;5072433;28;20220;-72
2022/10/06 04:35:09;;;;;;;0.50;0.50;;;15.50;99.90;;;;;;5072560;28;20423;-73
2022/10/06 04:37:57;;;;;;;0.40;0.40;;;15.40;99.90;;;;;;5072731;28;20420;-73
2022/10/06 04:40:45;;;;;;;0.83;0.50;;;15.40;99.90;;;;;;5073137;28;20423;-73
2022/10/06 04:43:33;;;;;;;0.40;0.40;;;15.40;99.90;;;;;;5072475;28;20201;-73
2022/10/06 04:46:24;;;;;;;0.40;0.40;;;15.30;99.90;;;;;;5072537;28;20431;-73
2022/10/06 04:49:32;;;;;;;0.40;0.40;;;15.30;99.90;;;;;;5071415;28;20223;-74
2022/10/06 04:52:21;;;;;;;0.40;0.40;;;15.20;99.90;;;;;;5072292;28;20585;-72
2022/10/06 04:55:10;;;;;;;0.40;0.40;;;15.20;99.90;;;;;;5072643;28;20799;-72
2022/10/06 04:57:58;;;;;;;0.60;0.60;;;15.10;99.90;;;;;;5072138;28;20947;-73
2022/10/06 05:00:48;;;;;;;0.40;0.40;;;15.20;99.90;;;;;;5072626;28;20431;-71
2022/10/06 05:03:38;;;;;;;0.63;0.50;;;15.10;99.90;;;;;;5072453;28;20423;-72
2022/10/06 05:06:28;;;;;;;0.40;0.40;;;15.20;99.90;;;;;;5072218;28;20196;-72
2022/10/06 05:09:16;;;;;;;0.50;0.50;;;15.10;99.90;;;;;;5072233;28;20482;-71
2022/10/06 05:12:04;;;;;;;0.40;0.40;;;15.10;99.90;;;;;;5072142;28;20420;-76
2022/10/06 05:14:53;;;;;;;0.40;0.40;;;15.10;99.90;;;;;;5072922;28;20427;-72
2022/10/06 05:17:41;;;;;;;0.40;0.40;;;15.00;99.90;;;;;;5073050;28;20449;-73
2022/10/06 05:20:30;;;;;;;0.40;0.40;;;15.10;99.90;;;;;;5072039;28;20699;-73
2022/10/06 05:23:18;;;;;;;0.40;0.40;;;14.90;99.90;;;;;;5077123;28;20415;-77
2022/10/06 05:26:07;;;;;;;0.50;0.50;;;15.20;99.90;;;;;;5076154;28;20868;-74
2022/10/06 05:28:55;;;;;;;0.40;0.40;;;15.00;99.90;;;;;;5076238;28;20451;-72
2022/10/06 05:31:44;;;;;;;0.40;0.40;;;15.00;99.90;;;;;;5076165;28;21026;-73
2022/10/06 05:34:32;;;;;;;0.40;0.40;;;14.90;99.90;;;;;;5076488;28;20466;-73
2022/10/06 05:37:21;;;;;;;0.40;0.40;;;14.90;99.90;;;;;;5076822;28;20434;-72
2022/10/06 05:40:10;;;;;;;0.40;0.40;;;14.70;99.90;;;;;;5075874;28;20443;-72
2022/10/06 05:42:58;;;;;;;0.40;0.40;;;14.70;99.90;;;;;;5069791;28;20430;-72
2022/10/06 05:45:53;;;;;;;0.40;0.40;;;14.70;99.90;;;;;;5073573;28;20781;-72
2022/10/06 05:48:41;;;;;;;0.40;0.40;;;14.50;99.90;;;;;;5056314;28;20440;-72
2022/10/06 05:51:31;;;;;;;0.50;0.50;;;14.50;99.90;;;;;;5054816;28;20948;-72
2022/10/06 05:54:21;;;;;;;0.40;0.40;;;14.40;99.90;;;;;;5071675;28;20924;-72
2022/10/06 05:57:09;;;;;;;0.40;0.40;;;14.30;99.90;;;;;;5076075;28;20431;-72
2022/10/06 05:59:57;;;;;;;0.40;0.40;;;14.20;99.90;;;;;;5075049;28;20458;-72
2022/10/06 06:02:45;;;;;;;0.50;0.50;;;14.10;99.90;;;;;;5069814;28;20431;-72
2022/10/06 06:05:33;;;;;;;0.97;0.70;;;14.00;99.90;;;;;;5053861;28;20408;-72
2022/10/06 06:08:22;;;;;;;0.40;0.40;;;13.90;99.90;;;;;;5064533;28;20987;-72
2022/10/06 06:11:11;;;;;;;0.40;0.40;;;14.10;99.90;;;;;;5074453;28;20440;-72
2022/10/06 06:14:01;;;;;;;0.40;0.40;;;13.80;99.90;;;;;;5074767;28;20463;-71
2022/10/06 06:16:48;;;;;;;0.50;0.50;;;13.80;99.90;;;;;;5075527;28;20428;-72
2022/10/06 06:19:36;;;;;;;0.40;0.40;;;13.80;99.90;;;;;;5104242;22;20485;-68
2022/10/06 06:22:24;;;;;;;0.40;0.40;;;13.80;99.90;;;;;;5085108;28;20416;-68
2022/10/06 06:25:12;;;;;;;0.40;0.40;;;13.80;99.90;;;;;;5075909;28;20798;-68
2022/10/06 06:28:02;;;;;;;0.40;0.40;;;13.90;99.90;;;;;;5076673;28;20524;-68
2022/10/06 06:30:57;;;;;;;0.40;0.40;;;13.90;99.90;;;;;;5061279;28;20473;-68
2022/10/06 06:33:46;;;;;;;0.90;0.90;;;13.90;99.90;;;;;;5070571;28;20478;-68
2022/10/06 06:36:39;;;;;;;0.50;0.50;;;15.80;99.90;;;;;;5074853;28;20557;-68
2022/10/06 06:39:28;;;;;;;0.47;0.47;;;14.30;99.90;;;;;;5053581;28;20455;-68
2022/10/06 06:42:16;;;;;;;0.50;0.50;;;14.30;99.90;;;;;;5070136;28;20444;-67
2022/10/06 06:45:08;;;;;;;0.40;0.40;;;14.60;99.90;;;;;;5073092;28;20431;-68
2022/10/06 06:47:56;;;;;;;0.50;0.50;;;14.60;99.90;;;;;;5071709;28;20449;-68
2022/10/06 06:50:44;;;;;;;0.40;0.40;;;14.50;99.90;;;;;;5054657;28;20458;-68
2022/10/06 06:53:32;;;;;;;0.40;0.40;;;14.60;99.90;;;;;;5054251;28;20585;-68
2022/10/06 06:56:21;;;;;;;0.50;0.50;;;14.40;99.90;;;;;;5054789;28;21199;-68
2022/10/06 06:59:10;;;;;;;0.40;0.40;;;14.30;99.90;;;;;;5054460;28;20536;-67
2022/10/06 07:02:02;;;;;;;0.40;0.40;;;14.30;99.90;;;;;;5054759;28;20792;-67
2022/10/06 07:04:50;;;;;;;0.40;0.40;;;14.10;99.90;;;;;;5061486;28;20423;-69
2022/10/06 07:07:38;;;;;;;1.67;0.97;;;14.20;99.90;;;;;;5068276;28;20511;-68
2022/10/06 07:10:27;;;;;;;0.40;0.40;;;14.20;99.90;;;;;;5062783;28;20448;-68
2022/10/06 07:13:16;;;;;;;0.40;0.40;;;14.30;99.90;;;;;;5054444;28;20482;-68
2022/10/06 07:25:37;;;;;;;0.47;0.47;;;14.30;99.90;;;;;;5030680;28;20483;-68
2022/10/06 07:28:25;;;;;;;0.40;0.40;;;14.40;99.90;;;;;;5060008;28;20430;-68
2022/10/06 07:31:15;;;;;;;0.70;0.63;;;14.50;99.90;;;;;;5053065;28;20470;-68
2022/10/06 07:34:05;;;;;;;0.80;0.50;;;14.60;99.90;;;;;;5053321;28;20452;-68
2022/10/06 07:36:54;;;;;;;0.40;0.40;;;14.70;99.90;;;;;;5062842;28;20496;-69
2022/10/06 07:39:43;;;;;;;0.63;0.63;;;14.80;99.90;;;;;;5070825;28;20793;-68
2022/10/06 07:42:46;;;;;;;0.50;0.50;;;14.80;99.90;;;;;;5054695;28;20433;-68
2022/10/06 07:45:40;;;;;;;0.40;0.40;;;14.80;99.90;;;;;;5050914;28;20478;-68
2022/10/06 07:48:28;;;;;;;0.40;0.40;;;17.00;99.90;;;;;;5057621;28;20431;-68
2022/10/06 07:51:19;;;;;;;2.20;1.13;;;14.90;99.90;;;;;;5060738;28;20432;-68
2022/10/06 07:54:08;;;;;;;0.50;0.50;;;14.90;99.90;;;;;;5059050;28;20460;-69
2022/10/06 07:56:56;;;;;;;0.50;0.50;;;14.90;99.90;;;;;;5055994;28;20476;-70
2022/10/06 07:59:44;;;;;;;0.50;0.50;;;14.90;99.90;;;;;;5061564;28;20448;-69
2022/10/06 08:02:32;;;;;;;0.50;0.40;;;14.90;99.90;;;;;;5062196;28;20431;-69
2022/10/06 08:05:23;;;;;;;0.50;0.50;;;14.90;99.90;;;;;;5059746;28;20500;-69
2022/10/06 08:08:13;;;;;;;0.40;0.40;;;14.90;99.90;;;;;;5051504;28;20854;-68
2022/10/06 08:11:04;;;;;;;0.40;0.40;;;15.00;99.90;;;;;;5059875;28;20804;-68
2022/10/06 08:13:52;;;;;;;0.40;0.40;;;15.00;99.90;;;;;;5071231;28;20884;-68
2022/10/06 08:16:40;;;;;;;0.40;0.40;;;15.00;99.90;;;;;;5071405;28;20656;-68
2022/10/06 08:19:28;;;;;;;1.43;0.97;;;15.00;99.90;;;;;;5068451;28;20465;-69
2022/10/06 08:22:16;;;;;;;0.50;0.50;;;15.00;99.90;;;;;;5071041;28;20442;-69
2022/10/06 08:25:05;;;;;;;2.87;0.50;;;15.10;99.90;;;;;;5070274;28;20431;-68
2022/10/06 08:27:55;;;;;;;0.50;0.50;;;15.10;99.90;;;;;;5073280;28;20514;-68
2022/10/06 08:30:44;;;;;;;0.60;0.60;;;15.20;99.90;;;;;;5060273;28;20460;-68
2022/10/06 08:33:37;;;;;;;0.50;0.50;;;15.30;99.90;;;;;;5058675;28;20431;-68
2022/10/06 08:36:27;;;;;;;0.80;0.50;;;15.40;99.90;;;;;;5069818;28;20522;-68
2022/10/06 08:39:19;;;;;;;0.50;0.50;;;15.50;99.90;;;;;;5056998;28;20448;-69
2022/10/06 08:42:13;;;;;;;4.20;1.30;;;15.60;99.90;;;;;;5059191;28;20481;-69
2022/10/06 08:45:09;;;;;;;0.70;0.60;;;15.80;99.90;;;;;;5067367;28;20434;-68
2022/10/06 08:48:01;;;;;;;0.50;0.50;;;15.80;99.90;;;;;;5066803;28;20439;-68
2022/10/06 08:50:57;;;;;;;0.47;0.47;;;15.90;99.90;;;;;;5065626;28;20495;-68
2022/10/06 08:53:54;;;;;;;0.40;0.40;;;16.10;99.90;;;;;;5052518;28;20709;-69
2022/10/06 08:56:53;;;;;;;0.50;0.50;;;16.40;99.90;;;;;;5072049;28;20203;-68
2022/10/06 08:59:46;;;;;;;0.40;0.40;;;16.80;99.90;;;;;;5067498;28;20234;-69
2022/10/06 09:02:41;;;;;;;0.40;0.40;;;16.90;99.90;;;;;;5070060;28;20201;-69
2022/10/06 09:05:33;;;;;;;0.40;0.40;;;16.90;99.90;;;;;;5074263;28;20212;-69
2022/10/06 09:08:38;;;;;;;0.80;0.50;;;16.80;99.90;;;;;;5075029;28;20204;-68
2022/10/06 09:11:40;;;;;;;1.23;1.07;;;16.60;99.90;;;;;;5069314;28;20657;-68
2022/10/06 09:14:33;;;;;;;0.40;0.40;;;14.20;99.90;;;;;;5075343;28;20263;-69
2022/10/06 09:17:29;;;;;;;0.60;0.60;;;15.90;99.90;;;;;;5075945;28;20582;-69
2022/10/06 09:20:22;;;;;;;0.43;0.43;;;15.70;99.90;;;;;;5073870;28;21210;-69
2022/10/06 09:23:15;;;;;;;0.40;0.40;;;15.70;99.90;;;;;;5076254;28;20216;-69
2022/10/06 09:26:04;;;;;;;1.50;0.50;;;15.70;99.90;;;;;;5074617;28;20197;-69
2022/10/06 09:28:54;;;;;;;0.40;0.40;;;15.70;99.90;;;;;;5074607;28;20429;-68
2022/10/06 09:31:47;;;;;;;5.50;0.97;;;15.60;99.90;;;;;;5056700;28;20515;-69
2022/10/06 09:34:38;;;;;;;1.10;0.53;;;15.70;99.90;;;;;;5058633;28;22043;-68
2022/10/06 09:37:28;;;;;;;0.40;0.40;;;15.60;99.90;;;;;;5076898;28;20419;-68
2022/10/06 09:40:34;;;;;;;0.40;0.40;;;15.90;99.90;;;;;;5071563;28;20225;-69
2022/10/06 09:43:25;;;;;;;2.00;0.50;;;15.90;99.90;;;;;;5070176;28;20200;-69
2022/10/06 09:46:21;;;;;;;0.40;0.40;;;15.90;99.90;;;;;;5073257;28;20196;-68
2022/10/06 09:49:18;;;;;;;14.97;1.20;;;15.80;99.90;;;;;;5074538;28;20357;-68
2022/10/06 09:52:13;;;;;;;0.80;0.60;;;15.90;99.90;;;;;;5058177;28;20266;-68
2022/10/06 09:55:11;;;;;;;0.60;0.50;;;15.90;99.90;;;;;;5062492;28;20216;-69
2022/10/06 09:58:01;;;;;;;0.60;0.60;;;16.00;99.90;;;;;;5067415;28;20442;-68
2022/10/06 10:00:53;;;;;;;1.37;0.47;;;15.90;99.90;;;;;;5065771;28;20224;-68
2022/10/06 10:03:45;;;;;;;0.40;0.40;;;15.80;99.90;;;;;;5062639;28;20436;-69
2022/10/06 10:06:55;;;;;;;0.70;0.60;;;15.70;99.90;;;;;;5053545;28;20797;-69
2022/10/06 10:09:43;;;;;;;0.50;0.50;;;15.60;99.90;;;;;;5058398;28;20243;-68
2022/10/06 10:12:34;;;;;;;0.70;0.70;;;15.60;99.90;;;;;;5052303;28;20577;-68
2022/10/06 10:15:29;;;;;;;0.40;0.40;;;15.80;99.90;;;;;;5054449;28;20233;-68
2022/10/06 10:18:25;;;;;;;0.93;0.57;;;16.00;99.90;;;;;;5065434;28;20450;-68
2022/10/06 10:21:28;;;;;;;0.40;0.40;;;16.10;99.90;;;;;;5064744;28;20198;-69
2022/10/06 10:24:28;;;;;;;2.43;0.83;;;16.20;99.90;;;;;;5065027;28;20455;-68
2022/10/06 10:27:39;;;;;;;0.40;0.40;;;16.30;99.90;;;;;;5054887;28;20420;-67
2022/10/06 10:30:40;;;;;;;1.37;0.60;;;16.40;99.90;;;;;;5063177;28;20221;-69
2022/10/06 10:33:43;;;;;;;0.40;0.40;;;16.30;99.90;;;;;;5065502;28;20208;-69
2022/10/06 10:37:07;;;;;;;0.40;0.40;;;16.40;99.90;;;;;;5069196;28;20467;-69
2022/10/06 10:40:07;;;;;;;0.90;0.90;;;16.50;99.90;;;;;;5056437;28;20451;-69
2022/10/06 10:43:20;;;;;;;0.50;0.50;;;16.50;99.90;;;;;;5071325;28;20431;-68
2022/10/06 10:46:23;;;;;;;0.40;0.40;;;16.80;99.90;;;;;;5057110;28;20347;-69
2022/10/06 10:49:33;;;;;;;0.40;0.40;;;16.90;99.90;;;;;;5054905;28;20720;-69
2022/10/06 10:52:31;;;;;;;1.73;0.70;;;17.20;99.90;;;;;;5055045;28;20598;-69
2022/10/06 10:55:33;;;;;;;0.40;0.40;;;17.30;99.90;;;;;;5080966;28;20279;-69
2022/10/06 10:58:40;;;;;;;0.60;0.60;;;17.40;99.90;;;;;;5088837;28;20281;-69
2022/10/06 11:02:01;;;;;;;0.40;0.40;;;17.40;99.90;;;;;;5078415;28;20213;-69
2022/10/06 11:04:59;;;;;;;1.15;0.90;;;17.40;99.90;;;;;;5080137;28;20205;-68
2022/10/06 11:08:10;;;;;;;0.40;0.40;;;17.30;99.90;;;;;;5090884;28;20204;-69
2022/10/06 11:11:15;;;;;;;0.40;0.40;;;17.10;99.90;;;;;;5087134;28;20226;-69
2022/10/06 11:14:19;;;;;;;0.50;0.50;;;17.10;99.90;;;;;;5084269;28;20253;-70
2022/10/06 11:17:18;;;;;;;1.17;0.60;;;17.10;99.90;;;;;;5073473;28;20310;-69
2022/10/06 11:20:25;;;;;;;0.50;0.50;;;17.00;99.90;;;;;;5062496;28;20233;-68
2022/10/06 11:23:30;;;;;;;0.40;0.40;;;17.00;99.90;;;;;;5073450;28;20235;-68
2022/10/06 11:26:43;;;;;;;0.68;0.60;;;17.10;99.90;;;;;;5052317;28;20201;-68
2022/10/06 11:29:49;;;;;;;0.50;0.50;;;17.10;99.90;;;;;;5064097;28;20699;-69
2022/10/06 11:33:01;;;;;;;0.40;0.40;;;17.20;99.90;;;;;;5052054;28;20251;-70
2022/10/06 11:36:04;;;;;;;0.98;0.63;;;17.20;99.90;;;;;;5058562;28;20232;-69
2022/10/06 11:39:11;;;;;;;0.40;0.40;;;17.30;99.90;;;;;;5060443;28;20203;-70
2022/10/06 11:42:11;;;;;;;0.40;0.40;;;17.30;99.90;;;;;;5071623;28;20201;-70
2022/10/06 11:45:05;;;;;;;0.40;0.40;;;17.20;99.90;;;;;;5059620;28;20236;-70
2022/10/06 11:48:25;;;;;;;0.40;0.40;;;17.30;99.90;;;;;;5053084;28;20208;-70
2022/10/06 11:51:38;;;;;;;1.85;0.63;;;17.40;99.90;;;;;;5051213;28;20209;-69
2022/10/06 11:54:53;;;;;;;2.67;0.70;;;17.50;99.90;;;;;;5061948;28;20206;-69
2022/10/06 11:58:18;;;;;;;0.40;0.40;;;17.50;99.90;;;;;;5055204;28;20280;-70
2022/10/06 12:01:59;;;;;;;0.40;0.40;;;17.50;99.90;;;;;;5057731;28;20239;-69
2022/10/06 12:05:25;;;;;;;0.40;0.40;;;17.60;99.90;;;;;;5062602;28;20201;-69
2022/10/06 12:08:52;;;;;;;0.40;0.40;;;17.50;99.90;;;;;;5067221;28;20219;-69
2022/10/06 12:11:45;;;;;;;0.40;0.40;;;17.50;99.90;;;;;;5070571;28;20299;-69
2022/10/06 12:14:53;;;;;;;0.40;0.40;;;17.40;99.90;;;;;;5071833;28;20219;-69
2022/10/06 12:18:37;;;;;;;0.50;0.50;;;17.50;99.90;;;;;;5072271;28;20206;-70
2022/10/06 12:21:44;;;;;;;0.40;0.40;;;17.40;99.90;;;;;;5089157;22;20230;-67
2022/10/06 12:24:42;;;;;;;0.50;0.50;;;17.40;99.90;;;;;;5090730;28;20207;-67
2022/10/06 12:27:40;;;;;;;1.20;0.50;;;17.30;99.90;;;;;;5090668;28;20192;-67
2022/10/06 12:30:33;;;;;;;0.80;0.80;;;17.30;99.90;;;;;;5080071;28;20196;-67
2022/10/06 12:33:36;;;;;;;0.40;0.40;;;17.30;99.90;;;;;;5070166;28;20197;-68
2022/10/06 12:36:28;;;;;;;0.50;0.50;;;17.30;99.90;;;;;;5067474;28;20226;-68
2022/10/06 12:39:22;;;;;;;0.50;0.50;;;17.30;99.90;;;;;;5070341;28;20322;-67
2022/10/06 12:42:19;;;;;;;0.50;0.50;;;17.40;99.90;;;;;;5057570;28;20707;-67
2022/10/06 12:45:15;;;;;;;0.40;0.40;;;17.40;99.90;;;;;;5054823;28;20204;-67
2022/10/06 12:48:08;;;;;;;0.43;0.43;;;17.50;99.90;;;;;;5071265;28;20204;-67
2022/10/06 12:51:02;;;;;;;3.03;2.70;;;17.50;99.90;;;;;;5068423;28;20238;-67
2022/10/06 12:53:58;;;;;;;0.43;0.43;;;17.60;99.90;;;;;;5070712;28;20849;-67
2022/10/06 12:56:57;;;;;;;0.57;0.55;;;17.40;99.90;;;;;;5071524;28;20216;-69
2022/10/06 12:59:48;;;;;;;0.60;0.60;;;17.40;99.90;;;;;;5069061;28;20223;-67
2022/10/06 13:02:36;;;;;;;0.50;0.50;;;17.40;99.90;;;;;;5057161;28;20222;-67
2022/10/06 13:05:24;;;;;;;0.50;0.50;;;17.40;99.90;;;;;;5059124;28;20193;-68
2022/10/06 13:08:23;;;;;;;0.60;0.60;;;17.40;99.90;;;;;;5069866;28;20716;-68
2022/10/06 13:11:20;;;;;;;0.40;0.40;;;17.60;99.90;;;;;;5068984;28;20228;-67
2022/10/06 13:14:12;;;;;;;0.50;0.50;;;17.90;99.90;;;;;;5070172;28;20334;-70
2022/10/06 13:17:01;;;;;;;0.40;0.40;;;18.00;99.90;;;;;;5069986;28;20224;-69
2022/10/06 13:19:50;;;;;;;0.50;0.50;;;18.20;99.90;;;;;;5069780;28;20661;-71
2022/10/06 13:22:38;;;;;;;0.40;0.40;;;18.30;99.90;;;;;;5052699;28;20228;-69
2022/10/06 13:25:34;;;;;;;0.50;0.50;;;18.20;99.90;;;;;;5058829;28;20273;-69
2022/10/06 13:28:28;;;;;;;1.35;1.02;;;18.10;99.90;;;;;;5061263;28;20202;-68
2022/10/06 13:31:21;;;;;;;0.57;0.50;;;18.50;99.90;;;;;;5077459;28;20221;-70
2022/10/06 13:34:12;;;;;;;1.30;0.65;;;19.90;99.90;;;;;;5070935;28;20205;-71
2022/10/06 13:37:01;;;;;;;0.60;0.60;;;20.60;99.90;;;;;;5070535;28;20581;-69
2022/10/06 13:39:49;;;;;;;0.52;0.52;;;20.70;99.90;;;;;;5059346;28;20307;-69
2022/10/06 13:42:38;;;;;;;0.40;0.40;;;20.30;99.90;;;;;;5053810;28;20223;-71
2022/10/06 13:45:27;;;;;;;0.50;0.50;;;19.70;99.90;;;;;;5063827;28;20219;-70
2022/10/06 13:48:18;;;;;;;0.93;0.57;;;19.20;99.90;;;;;;5072775;28;20219;-69
2022/10/06 13:51:13;;;;;;;0.50;0.50;;;18.90;99.90;;;;;;5072993;28;20220;-70
2022/10/06 13:54:18;;;;;;;0.68;0.68;;;18.70;99.90;;;;;;5055509;28;20263;-71
2022/10/06 13:57:38;;;;;;;1.25;0.50;;;18.60;99.90;;;;;;5054516;28;20221;-70
2022/10/06 14:00:27;;;;;;;0.40;0.40;;;18.40;99.90;;;;;;5055614;28;20211;-72
2022/10/06 14:03:22;;;;;;;0.50;0.50;;;18.40;99.90;;;;;;5066956;28;20268;-73
2022/10/06 14:06:17;;;;;;;0.40;0.40;;;18.40;99.90;;;;;;5075107;28;20209;-72
2022/10/06 14:09:12;;;;;;;0.40;0.40;;;18.70;99.90;;;;;;5073086;28;20578;-70
2022/10/06 14:12:06;;;;;;;0.40;0.40;;;20.30;99.90;;;;;;5073486;28;20714;-69
2022/10/06 14:14:55;;;;;;;0.60;0.60;;;22.10;99.90;;;;;;5073938;28;20213;-71
2022/10/06 14:17:43;;;;;;;0.40;0.40;;;23.20;97.70;;;;;;5053753;28;20306;-68
2022/10/06 14:20:45;;;;;;;0.57;0.50;;;23.60;96.00;;;;;;5062140;28;20200;-70
2022/10/06 14:23:40;;;;;;;0.40;0.40;;;24.60;93.90;;;;;;5053294;28;20236;-69
2022/10/06 14:26:31;;;;;;;0.68;0.68;;;25.00;92.60;;;;;;5065693;28;20227;-69
2022/10/06 14:29:19;;;;;;;0.40;0.40;;;24.70;91.20;;;;;;5072341;28;20209;-71
2022/10/06 14:32:14;;;;;;;2.65;0.45;;;23.70;91.00;;;;;;5072098;28;20281;-69
2022/10/06 14:35:02;;;;;;;0.70;0.70;;;22.70;91.90;;;;;;5068763;28;20692;-72
2022/10/06 14:37:50;;;;;;;0.40;0.40;;;21.80;92.20;;;;;;5056039;28;20227;-70
2022/10/06 14:40:40;;;;;;;1.02;0.60;;;21.60;92.70;;;;;;5073531;28;20583;-69
2022/10/06 14:43:28;;;;;;;0.40;0.40;;;21.60;92.90;;;;;;5072236;28;20200;-70
2022/10/06 14:46:16;;;;;;;0.40;0.40;;;21.60;93.40;;;;;;5057990;28;20207;-69
2022/10/06 14:49:07;;;;;;;0.40;0.40;;;21.70;93.10;;;;;;5052510;28;20201;-77
2022/10/06 14:51:55;;;;;;;1.05;0.73;;;21.40;93.20;;;;;;5051632;28;20239;-68
2022/10/06 14:54:43;;;;;;;0.50;0.50;;;20.80;93.70;;;;;;5051050;28;20201;-70
2022/10/06 14:57:31;;;;;;;0.50;0.50;;;20.20;94.20;;;;;;5052360;28;20284;-69
2022/10/06 15:00:20;;;;;;;0.40;0.40;;;19.80;94.60;;;;;;5052011;28;20213;-70
2022/10/06 15:03:08;;;;;;;0.50;0.50;;;18.90;96.40;;;;;;5054446;28;20263;-70
2022/10/06 15:09:08;;;;;;;0.43;0.43;;;18.40;96.60;;;;;;5072326;28;20661;-70
2022/10/06 15:11:56;;;;;;;0.40;0.40;;;18.10;97.50;;;;;;5074173;28;20224;-69
2022/10/06 15:14:44;;;;;;;2.05;1.08;;;17.90;98.00;;;;;;5073183;28;20272;-71